Olmsted Township, Ohio
Current Conditions -  °F | °C
As of 5:51 PM on Tuesday 27 Jan 2015 (Local Time) from KCLE Reporting Station
Scattered Clouds Scattered Clouds  
Wind Chill:   Ceiling: Unl
Heat Index: 18°   Visibility: 10mi
Dew Point: 11°   Wind: 9mph
Humidity: 74%   Direction: 330°NNW
Pressure: 30.16"   Gusts: NA
Location:  41.374°N, 81.9211°W
Report Text: KCLE 272251Z 33008KT 10SM FEW018 SCT080 SCT250 M08/M12 A3016 RMK AO2 SLP226 T10781117
Loading
Personal Weather Stations






























Interactive Weather Map New forecast layout! Learn more

10-Day Weather Forecast

Advertisements
Track Severe Weather on mobile